Time;durP1;ratioP1;P1;durP2;ratioP2;P2;SDS_P1;SDS_P2;PMS_P1;PMS_P2;Temp;Humidity;BMP_temperature;BMP_pressure;BME280_temperature;BME280_humidity;BME280_pressure;Samples;Min_cycle;Max_cycle;Signal;HPM_P1;HPM_P2
2022/08/09 00:01:49;;;;;;;;;;;;;;;16.61;100.00;100399.81;5076070;28;19968;-83
2022/08/09 00:04:17;;;;;;;;;;;;;;;16.28;100.00;100402.38;5059584;28;19932;-82
2022/08/09 00:06:45;;;;;;;;;;;;;;;16.46;100.00;100402.13;5075530;28;19955;-82
2022/08/09 00:09:14;;;;;;;;;;;;;;;16.50;100.00;100399.22;5075580;28;19925;-82
2022/08/09 00:11:41;;;;;;;;;;;;;;;16.52;100.00;100391.91;5092271;28;20346;-82
2022/08/09 00:14:08;;;;;;;;;;;;;;;16.42;100.00;100392.09;5092596;28;19929;-82
2022/08/09 00:16:35;;;;;;;;;;;;;;;15.74;100.00;100389.63;5076870;28;19932;-83
2022/08/09 00:19:03;;;;;;;;;;;;;;;15.48;100.00;100387.63;5092616;28;19978;-83
2022/08/09 00:21:30;;;;;;;;;;;;;;;15.98;100.00;100391.25;5058998;28;19936;-83
2022/08/09 00:23:58;;;;;;;;;;;;;;;15.64;100.00;100387.78;5076980;28;19928;-83
2022/08/09 00:26:25;;;;;;;;;;;;;;;15.38;100.00;100382.94;5059678;28;19924;-83
2022/08/09 00:28:52;;;;;;;;;;;;;;;15.79;100.00;100391.16;5076744;28;20439;-83
2022/08/09 00:31:23;;;;;;;;;;;;;;;15.77;100.00;100385.16;5076235;28;19931;-83
2022/08/09 00:33:50;;;;;;;;;;;;;;;15.02;100.00;100389.44;5076807;28;19936;-83
2022/08/09 00:36:18;;;;;;;;;;;;;;;14.93;100.00;100389.97;5076300;28;20386;-82
2022/08/09 00:38:45;;;;;;;;;;;;;;;15.55;100.00;100381.88;5075617;28;19928;-82
2022/08/09 00:41:12;;;;;;;;;;;;;;;15.77;100.00;100388.78;5042474;28;20023;-82
2022/08/09 00:43:39;;;;;;;;;;;;;;;16.01;100.00;100381.94;5058530;28;19974;-82
2022/08/09 00:46:08;;;;;;;;;;;;;;;15.86;100.00;100374.13;5075726;28;20296;-82
2022/08/09 00:48:35;;;;;;;;;;;;;;;15.20;100.00;100382.38;5075293;28;19931;-82
2022/08/09 00:51:04;;;;;;;;;;;;;;;15.02;100.00;100369.75;5075275;28;19924;-82
2022/08/09 00:53:31;;;;;;;;;;;;;;;15.28;100.00;100369.00;5091949;28;19924;-82
2022/08/09 00:55:58;;;;;;;;;;;;;;;15.60;100.00;100364.50;5041611;28;19924;-83
2022/08/09 00:58:25;;;;;;;;;;;;;;;15.18;100.00;100353.84;5058531;28;19931;-83
2022/08/09 01:00:54;;;;;;;;;;;;;;;15.01;100.00;100354.88;5075137;28;20015;-83
2022/08/09 01:03:21;;;;;;;;;;;;;;;15.22;100.00;100363.00;5074821;28;19954;-83
2022/08/09 01:05:58;;;;;;;;;;;;;;;15.09;100.00;100358.38;5076497;28;19975;-83
2022/08/09 01:08:46;;;;;;;;;;;;;;;15.21;100.00;100347.34;5041780;28;19963;-82
2022/08/09 01:11:14;;;;;;;;;;;;;;;15.26;100.00;100363.78;5075711;28;19929;-83
2022/08/09 01:13:51;;;;;;;;;;;;;;;14.94;100.00;100369.03;5074752;28;19994;-83
2022/08/09 01:16:22;;;;;;;;;;;;;;;13.70;100.00;100373.53;5058547;28;19925;-83
2022/08/09 01:18:50;;;;;;;;;;;;;;;14.58;100.00;100375.53;5108765;28;19932;-83
2022/08/09 01:21:29;;;;;;;;;;;;;;;14.93;100.00;100384.34;5075740;28;20019;-83
2022/08/09 01:24:19;;;;;;;;;;;;;;;15.03;100.00;100377.78;5058431;28;19978;-83
2022/08/09 01:26:49;;;;;;;;;;;;;;;14.98;100.00;100375.41;5072902;28;19947;-83
2022/08/09 01:29:18;;;;;;;;;;;;;;;14.67;100.00;100375.81;5076157;28;20023;-82
2022/08/09 01:31:46;;;;;;;;;;;;;;;14.58;100.00;100384.75;5057976;28;20556;-82
2022/08/09 01:34:16;;;;;;;;;;;;;;;14.57;100.00;100371.91;5075639;28;19932;-82
2022/08/09 01:36:44;;;;;;;;;;;;;;;14.67;100.00;100375.81;5075789;28;19989;-82
2022/08/09 01:39:11;;;;;;;;;;;;;;;14.68;100.00;100389.47;5075451;28;19960;-82
2022/08/09 01:41:40;;;;;;;;;;;;;;;14.56;100.00;100387.19;5072827;28;19932;-83
2022/08/09 01:44:08;;;;;;;;;;;;;;;14.62;100.00;100382.69;5074082;28;19931;-83
2022/08/09 01:46:37;;;;;;;;;;;;;;;14.65;100.00;100379.06;5074678;28;19925;-82
2022/08/09 01:49:06;;;;;;;;;;;;;;;14.59;100.00;100386.34;5041161;28;20023;-82
2022/08/09 01:51:34;;;;;;;;;;;;;;;14.39;100.00;100393.78;5075636;28;20069;-82
2022/08/09 01:54:02;;;;;;;;;;;;;;;12.80;100.00;100398.09;5074187;28;19928;-82
2022/08/09 01:56:30;;;;;;;;;;;;;;;13.06;100.00;100403.22;5073936;28;19960;-82
2022/08/09 01:58:57;;;;;;;;;;;;;;;13.67;100.00;100402.44;5057703;28;19932;-82
2022/08/09 02:01:25;;;;;;;;;;;;;;;13.85;100.00;100400.31;5073951;28;20007;-82
2022/08/09 02:03:55;;;;;;;;;;;;;;;13.85;100.00;100383.44;5073128;28;19924;-82
2022/08/09 02:07:07;;;;;;;;;;;;;;;13.91;100.00;100387.41;5057737;28;19928;-82
2022/08/09 02:09:12;;;;;;;;;;;;;;;13.83;100.00;100394.28;5090601;28;19924;-82
2022/08/09 02:11:39;;;;;;;;;;;;;;;13.88;100.00;100385.44;5073565;28;19955;-82
2022/08/09 02:14:07;;;;;;;;;;;;;;;13.83;100.00;100377.44;5074835;28;19925;-82
2022/08/09 02:16:36;;;;;;;;;;;;;;;13.88;100.00;100379.81;5075134;28;19932;-82
2022/08/09 02:19:04;;;;;;;;;;;;;;;13.88;100.00;100375.00;5057152;28;19924;-82
2022/08/09 02:21:35;;;;;;;;;;;;;;;13.90;100.00;100372.53;5075000;28;19929;-82
2022/08/09 02:24:04;;;;;;;;;;;;;;;13.59;100.00;100372.81;5057175;28;19932;-82
2022/08/09 02:26:33;;;;;;;;;;;;;;;13.37;100.00;100377.00;5090463;28;19934;-82
2022/08/09 02:29:05;;;;;;;;;;;;;;;13.13;100.00;100366.72;5073515;28;19930;-82
2022/08/09 02:31:35;;;;;;;;;;;;;;;13.59;100.00;100362.38;5075173;28;20343;-82
2022/08/09 02:34:14;;;;;;;;;;;;;;;13.64;100.00;100363.94;5056943;28;19925;-82
2022/08/09 02:36:43;;;;;;;;;;;;;;;13.58;100.00;100362.81;5073742;28;20257;-82
2022/08/09 02:39:14;;;;;;;;;;;;;;;13.47;100.00;100364.88;5056435;28;19924;-82
2022/08/09 02:41:46;;;;;;;;;;;;;;;13.37;100.00;100365.75;5074650;28;19929;-82
2022/08/09 02:44:15;;;;;;;;;;;;;;;13.30;100.00;100360.19;5073285;28;19936;-82
2022/08/09 02:46:43;;;;;;;;;;;;;;;13.27;100.00;100359.00;5073325;28;19955;-82
2022/08/09 02:49:14;;;;;;;;;;;;;;;12.22;100.00;100368.63;5074190;28;19928;-82
2022/08/09 02:51:43;;;;;;;;;;;;;;;12.37;100.00;100361.78;5056651;28;19928;-82
2022/08/09 02:54:13;;;;;;;;;;;;;;;12.80;100.00;100364.44;5073440;28;19929;-83
2022/08/09 02:56:43;;;;;;;;;;;;;;;12.99;100.00;100369.56;5073433;28;19925;-82
2022/08/09 02:59:13;;;;;;;;;;;;;;;13.26;100.00;100370.63;5072830;28;19935;-82
2022/08/09 03:01:44;;;;;;;;;;;;;;;13.24;100.00;100367.47;5057125;28;19951;-82
2022/08/09 03:04:13;;;;;;;;;;;;;;;13.02;100.00;100371.56;5056820;28;19971;-82
2022/08/09 03:06:41;;;;;;;;;;;;;;;12.74;100.00;100375.28;5073978;28;19925;-82
2022/08/09 03:09:09;;;;;;;;;;;;;;;12.81;100.00;100377.25;5056198;28;20015;-82
2022/08/09 03:11:36;;;;;;;;;;;;;;;12.77;100.00;100379.28;5072992;28;19925;-82
2022/08/09 03:14:07;;;;;;;;;;;;;;;12.68;100.00;100374.91;5073055;28;19924;-82
2022/08/09 03:16:38;;;;;;;;;;;;;;;11.82;100.00;100383.09;5074278;28;19956;-82
2022/08/09 03:19:08;;;;;;;;;;;;;;;11.79;100.00;100389.50;5073020;28;19970;-82
2022/08/09 03:21:40;;;;;;;;;;;;;;;12.03;100.00;100380.28;5053999;28;19932;-82
2022/08/09 03:24:10;;;;;;;;;;;;;;;12.49;100.00;100378.19;5036645;28;20296;-82
2022/08/09 03:26:42;;;;;;;;;;;;;;;12.70;100.00;100380.09;5020227;28;19948;-82
2022/08/09 03:29:14;;;;;;;;;;;;;;;12.80;100.00;100372.88;5036770;28;20432;-82
2022/08/09 03:31:45;;;;;;;;;;;;;;;12.71;100.00;100374.09;5036645;28;20023;-82
2022/08/09 03:34:14;;;;;;;;;;;;;;;12.62;100.00;100370.91;5020353;28;19935;-82
2022/08/09 03:36:45;;;;;;;;;;;;;;;12.60;100.00;100367.72;5037158;28;20023;-82
2022/08/09 03:39:12;;;;;;;;;;;;;;;11.98;100.00;100375.06;5053590;28;19928;-82
2022/08/09 03:41:39;;;;;;;;;;;;;;;12.28;100.00;100371.81;5054151;28;20395;-82
2022/08/09 03:44:06;;;;;;;;;;;;;;;12.31;100.00;100377.41;5036734;28;20345;-82
2022/08/09 03:46:33;;;;;;;;;;;;;;;12.05;100.00;100377.88;5036805;28;19924;-82
2022/08/09 03:49:04;;;;;;;;;;;;;;;11.95;100.00;100391.91;5053745;28;19925;-82
2022/08/09 03:51:32;;;;;;;;;;;;;;;12.43;100.00;100385.38;5019339;28;19925;-82
2022/08/09 03:53:59;;;;;;;;;;;;;;;12.56;100.00;100380.16;5054203;28;20418;-82
2022/08/09 03:56:26;;;;;;;;;;;;;;;12.63;100.00;100377.34;5019364;28;19925;-82
2022/08/09 03:58:53;;;;;;;;;;;;;;;12.52;100.00;100387.78;5036182;28;20023;-82
2022/08/09 04:01:20;;;;;;;;;;;;;;;12.65;100.00;100381.31;5053542;28;19932;-82
2022/08/09 04:03:47;;;;;;;;;;;;;;;12.71;100.00;100379.69;5003332;28;19932;-82
2022/08/09 04:06:14;;;;;;;;;;;;;;;12.74;100.00;100381.69;5053502;28;20398;-82
2022/08/09 04:08:41;;;;;;;;;;;;;;;12.60;100.00;100372.53;5035953;28;19925;-82
2022/08/09 04:11:09;;;;;;;;;;;;;;;12.57;100.00;100368.53;5019746;28;19975;-82
2022/08/09 04:13:35;;;;;;;;;;;;;;;12.49;100.00;100381.00;5035852;28;20302;-82
2022/08/09 04:16:03;;;;;;;;;;;;;;;12.62;100.00;100375.72;5036091;28;19964;-82
2022/08/09 04:18:30;;;;;;;;;;;;;;;11.90;100.00;100381.09;5019483;28;19925;-82
2022/08/09 04:20:57;;;;;;;;;;;;;;;11.27;100.00;100383.81;5061127;28;19925;-82
2022/08/09 04:23:24;;;;;;;;;;;;;;;11.82;100.00;100383.09;5055654;28;20351;-82
2022/08/09 04:25:52;;;;;;;;;;;;;;;12.05;100.00;100386.28;5072572;28;20371;-82
2022/08/09 04:28:23;;;;;;;;;;;;;;;11.95;100.00;100381.47;5057886;28;19924;-82
2022/08/09 04:30:50;;;;;;;;;;;;;;;11.26;100.00;100387.78;5059525;28;20371;-82
2022/08/09 04:33:17;;;;;;;;;;;;;;;11.82;100.00;100388.69;5059812;28;19956;-82
2022/08/09 04:35:44;;;;;;;;;;;;;;;11.94;100.00;100381.88;5092808;28;19978;-82
2022/08/09 04:38:11;;;;;;;;;;;;;;;12.19;100.00;100386.25;5075896;28;19924;-82
2022/08/09 04:40:47;;;;;;;;;;;;;;;12.29;100.00;100387.44;5075658;28;19924;-82
2022/08/09 04:43:15;;;;;;;;;;;;;;;12.43;100.00;100393.00;5075491;28;19929;-81
2022/08/09 04:45:43;;;;;;;;;;;;;;;12.26;100.00;100391.84;5058968;28;19983;-82
2022/08/09 04:48:11;;;;;;;;;;;;;;;12.16;100.00;100391.88;5076732;28;19928;-82
2022/08/09 04:50:39;;;;;;;;;;;;;;;11.60;100.00;100403.06;5076282;28;19971;-82
2022/08/09 04:53:06;;;;;;;;;;;;;;;11.35;100.00;100403.00;5058778;28;19951;-82
2022/08/09 04:55:33;;;;;;;;;;;;;;;11.73;100.00;100402.28;5075960;28;19924;-82
2022/08/09 04:58:00;;;;;;;;;;;;;;;11.92;100.00;100401.88;5058881;28;19932;-82
2022/08/09 05:00:28;;;;;;;;;;;;;;;12.13;100.00;100396.25;5059028;28;19924;-82
2022/08/09 05:02:55;;;;;;;;;;;;;;;12.26;100.00;100399.44;5075145;28;20283;-82
2022/08/09 05:05:22;;;;;;;;;;;;;;;11.95;100.00;100392.66;5075477;28;19987;-81
2022/08/09 05:07:49;;;;;;;;;;;;;;;12.10;100.00;100393.47;5075133;28;19924;-81
2022/08/09 05:10:17;;;;;;;;;;;;;;;12.15;100.00;100396.66;5058783;28;19960;-81
2022/08/09 05:12:45;;;;;;;;;;;;;;;12.22;100.00;100405.06;5075496;28;19960;-82
2022/08/09 05:15:12;;;;;;;;;;;;;;;12.22;100.00;100393.06;5076551;28;20374;-82
2022/08/09 05:17:39;;;;;;;;;;;;;;;12.28;100.00;100392.22;5075401;28;19968;-82
2022/08/09 05:20:06;;;;;;;;;;;;;;;12.27;100.00;100398.22;5074507;28;19932;-82
2022/08/09 05:22:34;;;;;;;;;;;;;;;11.94;100.00;100396.69;5075977;28;20276;-81
2022/08/09 05:25:03;;;;;;;;;;;;;;;11.66;100.00;100391.06;5074785;28;19928;-82
2022/08/09 05:27:30;;;;;;;;;;;;;;;12.13;100.00;100403.88;5075234;28;20019;-82
2022/08/09 05:29:57;;;;;;;;;;;;;;;12.44;100.00;100400.22;5074818;28;19954;-82
2022/08/09 05:32:24;;;;;;;;;;;;;;;12.58;100.00;100397.38;5058039;28;20019;-81
2022/08/09 05:34:51;;;;;;;;;;;;;;;12.23;100.00;100400.25;5057244;28;20433;-81
2022/08/09 05:37:18;;;;;;;;;;;;;;;11.34;100.00;100400.59;5075852;28;20011;-81
2022/08/09 05:39:45;;;;;;;;;;;;;;;11.28;100.00;100416.19;5074435;28;19924;-81
2022/08/09 05:42:14;;;;;;;;;;;;;;;11.52;100.00;100419.03;5074507;28;20012;-82
2022/08/09 05:44:41;;;;;;;;;;;;;;;12.29;100.00;100410.66;5091430;28;19924;-82
2022/08/09 05:47:08;;;;;;;;;;;;;;;12.86;100.00;100413.31;5074479;28;19990;-82
2022/08/09 05:49:36;;;;;;;;;;;;;;;13.25;100.00;100408.34;5074210;28;20002;-82
2022/08/09 05:52:03;;;;;;;;;;;;;;;13.53;100.00;100413.78;5075867;28;19967;-82
2022/08/09 05:54:31;;;;;;;;;;;;;;;13.53;100.00;100408.97;5074127;28;19924;-82
2022/08/09 05:56:58;;;;;;;;;;;;;;;13.24;100.00;100423.59;5075713;28;19990;-82
2022/08/09 05:59:25;;;;;;;;;;;;;;;12.89;100.00;100429.34;5074286;28;19924;-82
2022/08/09 06:01:52;;;;;;;;;;;;;;;12.86;100.00;100425.31;5075505;28;19960;-82
2022/08/09 06:04:19;;;;;;;;;;;;;;;13.29;100.00;100434.38;5073848;28;20319;-81
2022/08/09 06:06:46;;;;;;;;;;;;;;;13.64;100.00;100431.38;5057631;28;19925;-82
2022/08/09 06:09:13;;;;;;;;;;;;;;;13.51;100.00;100427.44;5057665;28;19929;-82
2022/08/09 06:11:40;;;;;;;;;;;;;;;13.98;100.00;100423.91;5057502;28;19924;-82
2022/08/09 06:14:07;;;;;;;;;;;;;;;14.39;100.00;100422.72;5057340;28;19924;-82
2022/08/09 06:16:34;;;;;;;;;;;;;;;14.26;100.00;100429.28;5057073;28;20335;-82
2022/08/09 06:19:01;;;;;;;;;;;;;;;13.99;100.00;100436.72;5057553;28;19978;-82
2022/08/09 06:21:28;;;;;;;;;;;;;;;14.22;100.00;100428.50;5040538;28;20016;-82
2022/08/09 06:23:55;;;;;;;;;;;;;;;14.73;100.00;100425.59;5056917;28;19925;-82
2022/08/09 06:26:23;;;;;;;;;;;;;;;15.13;100.00;100426.72;5056433;28;20308;-82
2022/08/09 06:28:50;;;;;;;;;;;;;;;15.41;100.00;100432.78;5056204;28;19926;-82
2022/08/09 06:31:18;;;;;;;;;;;;;;;15.27;100.00;100430.13;5056446;28;19932;-82
2022/08/09 06:33:45;;;;;;;;;;;;;;;15.15;100.00;100424.25;5074604;28;19925;-82
2022/08/09 06:36:12;;;;;;;;;;;;;;;15.56;100.00;100428.56;5073096;28;19981;-82
2022/08/09 06:38:40;;;;;;;;;;;;;;;15.99;100.00;100426.66;5089935;28;19924;-82
2022/08/09 06:41:07;;;;;;;;;;;;;;;16.25;100.00;100428.63;5056534;28;20015;-82
2022/08/09 06:43:35;;;;;;;;;;;;;;;16.45;100.00;100422.28;5040109;28;19924;-82
2022/08/09 06:46:02;;;;;;;;;;;;;;;16.17;100.00;100417.91;5073116;28;20023;-82
2022/08/09 06:48:29;;;;;;;;;;;;;;;16.27;100.00;100421.78;5040250;28;19925;-82
2022/08/09 06:50:57;;;;;;;;;;;;;;;16.53;100.00;100420.91;5073448;28;20240;-82
2022/08/09 06:53:24;;;;;;;;;;;;;;;16.40;100.00;100414.28;5073605;28;19924;-81
2022/08/09 06:55:52;;;;;;;;;;;;;;;16.33;100.00;100425.72;5073637;28;19928;-82
2022/08/09 06:58:19;;;;;;;;;;;;;;;16.81;100.00;100426.03;5056441;28;19933;-81
2022/08/09 07:00:45;;;;;;;;;;;;;;;17.14;100.00;100430.59;5073995;28;19925;-81
2022/08/09 07:03:23;;;;;;;;;;;;;;;16.92;100.00;100435.88;5073770;28;19974;-81
2022/08/09 07:05:50;;;;;;;;;;;;;;;17.35;100.00;100435.78;5056358;28;20020;-81
2022/08/09 07:08:17;;;;;;;;;;;;;;;19.06;100.00;100425.00;5056873;28;19925;-81
2022/08/09 07:10:44;;;;;;;;;;;;;;;21.42;100.00;100412.94;5074205;28;19924;-82
2022/08/09 07:13:11;;;;;;;;;;;;;;;23.33;100.00;100395.00;5074365;28;19931;-82
2022/08/09 07:15:38;;;;;;;;;;;;;;;25.18;100.00;100398.22;5072962;28;19925;-82
2022/08/09 07:18:05;;;;;;;;;;;;;;;26.26;100.00;100382.59;5073327;28;19959;-82
2022/08/09 07:20:33;;;;;;;;;;;;;;;27.11;100.00;100380.31;5073998;28;20140;-82
2022/08/09 07:23:00;;;;;;;;;;;;;;;27.89;100.00;100374.00;5073464;28;19924;-80
2022/08/09 07:25:27;;;;;;;;;;;;;;;28.28;99.67;100383.66;5074098;28;19924;-81
2022/08/09 07:27:54;;;;;;;;;;;;;;;28.95;99.82;100391.31;5074089;28;19924;-79
2022/08/09 07:30:21;;;;;;;;;;;;;;;29.02;100.00;100390.78;5072583;28;19925;-79
2022/08/09 07:32:49;;;;;;;;;;;;;;;27.85;100.00;100396.41;5106267;28;20027;-81
2022/08/09 07:35:17;;;;;;;;;;;;;;;27.44;100.00;100410.16;5072675;28;20314;-83
2022/08/09 07:37:44;;;;;;;;;;;;;;;28.68;100.00;100400.63;5072609;28;19931;-83
2022/08/09 07:40:15;;;;;;;;;;;;;;;29.01;99.93;100395.00;5073837;28;19924;-83
2022/08/09 07:42:51;;;;;;;;;;;;;;;29.44;98.83;100392.75;5072667;28;19964;-83
2022/08/09 07:45:24;;;;;;;;;;;;;;;29.82;95.52;100391.22;5039182;28;19968;-83
2022/08/09 07:47:52;;;;;;;;;;;;;;;30.40;95.45;100395.88;5072665;28;20450;-83
2022/08/09 07:50:19;;;;;;;;;;;;;;;30.80;92.66;100386.56;5072531;28;20015;-83
2022/08/09 07:52:47;;;;;;;;;;;;;;;30.96;91.96;100388.59;5072672;28;19924;-83
2022/08/09 07:55:14;;;;;;;;;;;;;;;31.11;87.80;100384.03;5073640;28;19960;-83
2022/08/09 07:57:41;;;;;;;;;;;;;;;31.16;89.60;100379.53;5072642;28;19925;-83
2022/08/09 08:00:09;;;;;;;;;;;;;;;31.63;88.78;100378.16;5072355;28;19974;-84
2022/08/09 08:02:39;;;;;;;;;;;;;;;31.32;84.43;100375.81;5074383;28;19931;-84
2022/08/09 08:05:08;;;;;;;;;;;;;;;31.62;85.62;100373.72;5059748;28;20346;-84
2022/08/09 08:07:35;;;;;;;;;;;;;;;31.60;82.21;100372.72;5059498;28;20047;-84
2022/08/09 08:10:04;;;;;;;;;;;;;;;31.31;83.63;100377.09;5092797;28;19924;-84
2022/08/09 08:12:31;;;;;;;;;;;;;;;31.32;83.00;100370.78;5042914;28;19931;-84
2022/08/09 08:14:58;;;;;;;;;;;;;;;31.50;82.85;100371.47;5076183;28;19928;-83
2022/08/09 08:17:25;;;;;;;;;;;;;;;32.17;85.08;100370.31;5059305;28;19924;-83
2022/08/09 08:19:52;;;;;;;;;;;;;;;32.57;86.25;100372.28;5075394;28;19928;-83
2022/08/09 08:22:20;;;;;;;;;;;;;;;32.75;84.67;100371.50;5058673;28;20317;-83
2022/08/09 08:24:50;;;;;;;;;;;;;;;32.01;83.80;100367.59;5074938;28;19971;-83
2022/08/09 08:27:17;;;;;;;;;;;;;;;32.57;81.94;100369.38;5058382;28;19994;-84
2022/08/09 08:29:44;;;;;;;;;;;;;;;32.43;80.80;100370.59;5058730;28;19928;-83
2022/08/09 08:32:11;;;;;;;;;;;;;;;32.99;83.73;100374.38;5058753;28;20383;-83
2022/08/09 08:34:38;;;;;;;;;;;;;;;33.39;80.70;100369.59;5075886;28;19924;-83
2022/08/09 08:37:05;;;;;;;;;;;;;;;30.30;79.31;100385.94;5042038;28;20445;-83
2022/08/09 08:39:32;;;;;;;;;;;;;;;31.06;82.78;100387.75;5075375;28;20334;-82
2022/08/09 08:42:00;;;;;;;;;;;;;;;32.21;81.58;100376.59;5076404;28;20359;-82
2022/08/09 08:44:28;;;;;;;;;;;;;;;32.78;80.30;100378.31;5075458;28;19947;-83
2022/08/09 08:46:57;;;;;;;;;;;;;;;33.10;81.74;100378.44;5058346;28;20268;-82
2022/08/09 08:49:24;;;;;;;;;;;;;;;33.46;81.50;100373.97;5076580;28;19928;-83
2022/08/09 08:51:54;;;;;;;;;;;;;;;32.68;78.85;100374.25;5058586;28;20434;-83
2022/08/09 08:54:21;;;;;;;;;;;;;;;32.25;78.48;100376.28;5058722;28;20024;-83
2022/08/09 08:56:49;;;;;;;;;;;;;;;32.28;80.46;100381.00;5041842;28;20395;-83
2022/08/09 08:59:16;;;;;;;;;;;;;;;32.73;80.45;100371.25;5075143;28;20011;-83
2022/08/09 09:01:43;;;;;;;;;;;;;;;33.28;80.49;100366.06;5041459;28;19974;-83
2022/08/09 09:04:11;;;;;;;;;;;;;;;33.01;80.41;100371.72;5074992;28;19963;-83
2022/08/09 09:06:39;;;;;;;;;;;;;;;31.54;81.02;100378.50;5075111;28;20372;-79
2022/08/09 09:09:10;;;;;;;;;;;;;;;32.14;83.64;100385.88;5042281;28;19986;-79
2022/08/09 09:11:39;;;;;;;;;;;;;;;29.66;78.38;100382.06;5074515;28;19924;-79
2022/08/09 09:14:15;;;;;;;;;;;;;;;31.33;81.38;100383.13;5074500;28;20340;-79
2022/08/09 09:16:43;;;;;;;;;;;;;;;32.40;72.15;100360.09;5058275;28;19931;-79
2022/08/09 09:19:10;;;;;;;;;;;;;;;32.58;70.51;100359.34;5074942;28;19930;-80
2022/08/09 09:21:59;;;;;;;;;;;;;;;33.10;73.52;100366.88;5074668;28;20378;-79
2022/08/09 09:24:29;;;;;;;;;;;;;;;33.61;74.41;100374.25;5076172;28;19955;-79
2022/08/09 09:27:00;;;;;;;;;;;;;;;33.74;78.93;100377.19;5074632;28;20370;-80
2022/08/09 09:29:32;;;;;;;;;;;;;;;33.86;73.40;100364.84;5057840;28;19932;-80
2022/08/09 09:32:11;;;;;;;;;;;;;;;33.54;72.39;100363.28;5075006;28;20021;-79
2022/08/09 09:34:41;;;;;;;;;;;;;;;33.43;71.05;100358.47;5074709;28;19956;-79
2022/08/09 09:37:08;;;;;;;;;;;;;;;33.08;72.71;100366.63;5075881;28;19947;-80
2022/08/09 09:39:35;;;;;;;;;;;;;;;32.26;75.86;100375.75;5075653;28;20352;-80
2022/08/09 09:42:04;;;;;;;;;;;;;;;32.22;81.05;100386.03;5074403;28;20015;-80
2022/08/09 09:44:33;;;;;;;;;;;;;;;32.04;80.13;100384.66;5074528;28;20031;-80
2022/08/09 09:47:15;;;;;;;;;;;;;;;31.41;81.16;100384.13;5074387;28;20023;-79
2022/08/09 09:49:52;;;;;;;;;;;;;;;29.89;86.78;100393.56;5074519;28;19925;-79
2022/08/09 09:52:19;;;;;;;;;;;;;;;30.28;91.57;100392.22;5057790;28;19970;-79
2022/08/09 09:54:46;;;;;;;;;;;;;;;30.36;88.15;100395.34;5074187;28;20016;-79
2022/08/09 09:57:16;;;;;;;;;;;;;;;29.77;91.21;100387.81;5074046;28;20387;-79
2022/08/09 09:59:44;;;;;;;;;;;;;;;29.65;93.49;100389.13;5057525;28;19924;-79
2022/08/09 10:02:12;;;;;;;;;;;;;;;29.93;88.02;100376.81;5074235;28;19924;-79
2022/08/09 10:04:39;;;;;;;;;;;;;;;29.49;91.92;100381.22;5057225;28;19925;-79
2022/08/09 10:07:27;;;;;;;;;;;;;;;28.48;96.11;100392.16;5074141;28;20001;-79
2022/08/09 10:09:56;;;;;;;;;;;;;;;29.06;98.49;100397.13;5074993;28;20318;-79
2022/08/09 10:12:25;;;;;;;;;;;;;;;28.89;99.92;100398.34;5075028;28;19924;-79
2022/08/09 10:15:22;;;;;;;;;;;;;;;27.69;100.00;100397.84;5073838;28;19929;-79
2022/08/09 10:17:49;;;;;;;;;;;;;;;28.74;100.00;100389.94;5052861;28;19964;-79
2022/08/09 10:20:20;;;;;;;;;;;;;;;28.64;100.00;100391.47;5057218;28;20026;-79
2022/08/09 10:22:52;;;;;;;;;;;;;;;29.11;100.00;100395.56;5073730;28;20003;-79
2022/08/09 10:25:22;;;;;;;;;;;;;;;27.94;100.00;100399.13;5072847;28;19924;-79
2022/08/09 10:27:49;;;;;;;;;;;;;;;27.47;100.00;100394.00;5056895;28;19974;-80
2022/08/09 10:30:16;;;;;;;;;;;;;;;26.80;100.00;100398.19;5075061;28;20261;-80
2022/08/09 10:33:04;;;;;;;;;;;;;;;26.38;100.00;100401.53;5073747;28;19986;-82
2022/08/09 10:35:31;;;;;;;;;;;;;;;27.26;100.00;100396.16;5073198;28;19924;-82
2022/08/09 10:38:00;;;;;;;;;;;;;;;27.89;100.00;100392.03;5090143;28;19931;-82
2022/08/09 10:40:28;;;;;;;;;;;;;;;26.36;100.00;100398.38;5073051;28;19924;-82
2022/08/09 10:42:55;;;;;;;;;;;;;;;26.68;100.00;100389.97;5056757;28;19972;-82
2022/08/09 10:45:22;;;;;;;;;;;;;;;26.57;100.00;100389.81;5056731;28;20280;-82
2022/08/09 10:48:03;;;;;;;;;;;;;;;27.03;100.00;100391.44;5074278;28;19931;-82
2022/08/09 10:53:53;;;;;;;;;;;;;;;27.03;100.00;100387.75;5073426;28;19967;-80
2022/08/09 10:56:22;;;;;;;;;;;;;;;27.48;100.00;100386.94;5073239;28;19928;-80
2022/08/09 10:58:50;;;;;;;;;;;;;;;26.95;100.00;100389.50;5090167;28;19966;-80
2022/08/09 11:01:34;;;;;;;;;;;;;;;27.40;100.00;100385.84;5073377;28;19946;-82
2022/08/09 11:04:07;;;;;;;;;;;;;;;27.27;100.00;100385.44;5056733;28;19924;-82
2022/08/09 11:06:36;;;;;;;;;;;;;;;26.74;100.00;100382.22;5074265;28;20030;-82
2022/08/09 11:09:04;;;;;;;;;;;;;;;27.10;100.00;100373.75;5073167;28;20372;-82
2022/08/09 11:11:50;;;;;;;;;;;;;;;26.45;100.00;100381.06;5073009;28;19924;-82
2022/08/09 11:14:30;;;;;;;;;;;;;;;27.02;100.00;100374.72;5057009;28;19924;-82
2022/08/09 11:16:58;;;;;;;;;;;;;;;26.71;100.00;100371.75;5073212;28;20402;-82
2022/08/09 11:19:44;;;;;;;;;;;;;;;28.06;100.00;100358.47;5074016;28;20019;-82
2022/08/09 11:22:11;;;;;;;;;;;;;;;28.07;100.00;100356.34;5056492;28;19924;-82
2022/08/09 11:24:53;;;;;;;;;;;;;;;27.34;100.00;100356.31;5073106;28;19987;-82
2022/08/09 11:27:29;;;;;;;;;;;;;;;27.64;100.00;100361.25;5056220;28;19924;-82
2022/08/09 11:29:56;;;;;;;;;;;;;;;27.52;100.00;100355.94;5072223;28;20398;-82
2022/08/09 11:32:38;;;;;;;;;;;;;;;28.14;100.00;100355.91;5072709;28;19952;-82
2022/08/09 11:35:09;;;;;;;;;;;;;;;28.26;100.00;100363.28;5072556;28;19925;-82
2022/08/09 11:37:38;;;;;;;;;;;;;;;28.40;100.00;100352.91;5058810;28;19978;-82
2022/08/09 11:40:06;;;;;;;;;;;;;;;28.07;100.00;100350.63;5059321;28;20015;-81
2022/08/09 11:42:53;;;;;;;;;;;;;;;27.63;100.00;100356.00;5071300;28;19931;-81
2022/08/09 11:45:23;;;;;;;;;;;;;;;27.84;100.00;100354.59;5075840;28;20007;-81
2022/08/09 11:47:52;;;;;;;;;;;;;;;27.23;100.00;100356.97;5092840;28;19924;-81
2022/08/09 11:50:20;;;;;;;;;;;;;;;27.56;100.00;100356.47;5075635;28;19932;-81
2022/08/09 11:52:59;;;;;;;;;;;;;;;27.79;100.00;100350.38;5093292;28;19932;-81
2022/08/09 11:55:31;;;;;;;;;;;;;;;27.84;100.00;100348.84;5076471;28;19931;-80
2022/08/09 11:57:59;;;;;;;;;;;;;;;28.05;100.00;100345.38;5077720;28;19935;-81
2022/08/09 12:00:29;;;;;;;;;;;;;;;27.26;100.00;100347.38;5059285;28;20268;-84
2022/08/09 12:02:56;;;;;;;;;;;;;;;27.64;100.00;100346.13;5059728;28;20391;-84
2022/08/09 12:05:34;;;;;;;;;;;;;;;27.71;100.00;100343.56;5075985;28;19925;-84
2022/08/09 12:08:08;;;;;;;;;;;;;;;27.17;100.00;100340.97;5076403;28;19931;-84
2022/08/09 12:10:41;;;;;;;;;;;;;;;27.45;100.00;100344.91;5042736;28;19932;-84
2022/08/09 12:13:08;;;;;;;;;;;;;;;27.40;100.00;100334.19;5092948;28;19932;-81
2022/08/09 12:15:36;;;;;;;;;;;;;;;27.64;100.00;100331.75;5093029;28;20342;-81
2022/08/09 12:18:03;;;;;;;;;;;;;;;28.33;100.00;100339.00;5076200;28;19978;-82
2022/08/09 12:20:31;;;;;;;;;;;;;;;28.94;100.00;100326.44;5075664;28;20351;-81
2022/08/09 12:23:01;;;;;;;;;;;;;;;29.16;100.00;100331.47;5075785;28;19928;-81
2022/08/09 12:25:29;;;;;;;;;;;;;;;28.98;100.00;100334.81;5077115;28;19924;-82
2022/08/09 12:28:09;;;;;;;;;;;;;;;28.95;100.00;100324.34;5075918;28;19951;-82
2022/08/09 12:30:36;;;;;;;;;;;;;;;28.89;100.00;100332.16;5075983;28;19930;-81
2022/08/09 12:33:03;;;;;;;;;;;;;;;29.38;100.00;100338.06;5076960;28;19931;-81
2022/08/09 12:35:30;;;;;;;;;;;;;;;29.54;100.00;100339.34;5075590;28;19974;-82
2022/08/09 12:38:18;;;;;;;;;;;;;;;29.00;100.00;100330.13;5075243;28;20285;-82
2022/08/09 12:40:46;;;;;;;;;;;;;;;29.11;100.00;100335.91;5075832;28;20433;-82
2022/08/09 12:43:14;;;;;;;;;;;;;;;29.38;100.00;100338.06;5077089;28;19929;-82